Time;durP1;ratioP1;P1;durP2;ratioP2;P2;SDS_P1;SDS_P2;PMS_P1;PMS_P2;Temp;Humidity;BMP_temperature;BMP_pressure;BME280_temperature;BME280_humidity;BME280_pressure;Samples;Min_cycle;Max_cycle;Signal;HPM_P1;HPM_P2
2021/09/27 00:00:47;;;;;;;4.78;2.72;;;15.80;99.90;;;;;;5026277;28;20032;-81
2021/09/27 00:03:13;;;;;;;6.13;3.60;;;15.80;99.90;;;;;;5014840;28;20045;-81
2021/09/27 00:05:40;;;;;;;6.22;3.35;;;15.80;99.90;;;;;;5030222;28;20033;-81
2021/09/27 00:08:06;;;;;;;5.22;3.38;;;15.80;99.90;;;;;;5011233;28;20038;-81
2021/09/27 00:10:47;;;;;;;5.85;3.60;;;15.70;99.90;;;;;;5030801;28;20026;-81
2021/09/27 00:13:14;;;;;;;4.68;3.30;;;15.70;99.90;;;;;;5030890;28;20372;-81
2021/09/27 00:15:48;;;;;;;5.60;3.97;;;15.70;99.90;;;;;;5031028;28;20028;-81
2021/09/27 00:18:14;;;;;;;6.25;3.80;;;15.70;99.90;;;;;;5047374;28;20807;-81
2021/09/27 00:20:43;;;;;;;6.28;3.30;;;15.80;99.90;;;;;;5030895;28;20097;-81
2021/09/27 00:23:10;;;;;;;5.22;3.15;;;15.70;99.90;;;;;;5028752;28;20044;-80
2021/09/27 00:25:36;;;;;;;4.50;3.40;;;15.70;99.90;;;;;;5006120;28;20037;-80
2021/09/27 00:28:02;;;;;;;5.03;3.38;;;15.70;99.90;;;;;;5023362;28;20467;-81
2021/09/27 00:30:28;;;;;;;6.88;3.30;;;15.80;99.90;;;;;;5024258;28;20256;-81
2021/09/27 00:32:54;;;;;;;4.18;2.60;;;15.80;99.90;;;;;;5014298;28;20033;-81
2021/09/27 00:35:24;;;;;;;4.30;2.60;;;15.70;99.90;;;;;;5028644;28;20029;-81
2021/09/27 00:37:51;;;;;;;3.88;2.80;;;15.70;99.90;;;;;;5025723;28;20025;-81
2021/09/27 00:40:19;;;;;;;4.15;3.13;;;15.70;99.90;;;;;;5027506;28;20042;-80
2021/09/27 00:42:47;;;;;;;4.10;3.00;;;15.70;99.90;;;;;;5031032;28;20068;-80
2021/09/27 00:45:16;;;;;;;6.10;3.17;;;15.70;99.90;;;;;;5005950;28;20045;-81
2021/09/27 00:47:42;;;;;;;5.28;2.75;;;15.80;99.90;;;;;;5010458;28;20487;-81
2021/09/27 00:50:10;;;;;;;4.78;3.42;;;15.70;99.90;;;;;;5014147;28;20029;-80
2021/09/27 00:52:37;;;;;;;5.13;3.28;;;15.70;99.90;;;;;;5039679;28;20090;-80
2021/09/27 00:55:06;;;;;;;5.18;3.63;;;15.80;99.90;;;;;;5029622;28;20472;-80
2021/09/27 00:57:32;;;;;;;4.82;3.67;;;15.80;99.90;;;;;;5029654;28;20025;-80
2021/09/27 00:59:58;;;;;;;4.07;2.97;;;15.80;99.90;;;;;;5010941;28;20095;-80
2021/09/27 01:02:25;;;;;;;5.65;3.33;;;15.80;99.90;;;;;;5027506;28;20037;-81
2021/09/27 01:04:52;;;;;;;3.38;2.78;;;15.80;99.90;;;;;;5045725;23;20149;-80
2021/09/27 01:07:33;;;;;;;4.22;2.80;;;15.80;99.90;;;;;;4989244;28;20585;-82
2021/09/27 01:10:04;;;;;;;4.28;2.78;;;15.80;99.90;;;;;;5008868;28;20488;-79
2021/09/27 01:12:52;;;;;;;5.63;3.65;;;15.70;99.90;;;;;;4994098;28;20034;-80
2021/09/27 01:15:18;;;;;;;5.50;3.83;;;15.80;99.90;;;;;;5009408;28;20030;-80
2021/09/27 01:17:59;;;;;;;5.97;3.95;;;15.80;99.90;;;;;;5009339;28;20515;-81
2021/09/27 01:20:46;;;;;;;4.72;2.78;;;15.70;99.90;;;;;;5000016;28;20080;-81
2021/09/27 01:23:50;;;;;;;4.22;3.13;;;15.70;99.90;;;;;;4980697;28;20492;-80
2021/09/27 01:26:23;;;;;;;5.13;3.42;;;15.60;99.90;;;;;;5004702;28;20045;-80
2021/09/27 01:29:33;;;;;;;5.85;3.80;;;15.60;99.90;;;;;;5001840;28;20026;-81
2021/09/27 01:32:17;;;;;;;4.70;3.40;;;15.60;99.90;;;;;;4991111;28;20044;-81
2021/09/27 01:35:08;;;;;;;4.15;2.67;;;15.60;99.90;;;;;;5008429;28;20044;-80
2021/09/27 01:37:56;;;;;;;5.10;2.88;;;15.60;99.90;;;;;;4998789;28;20112;-80
2021/09/27 01:40:54;;;;;;;7.20;2.70;;;15.60;99.90;;;;;;5008417;28;20092;-80
2021/09/27 01:43:35;;;;;;;5.65;3.53;;;15.70;99.90;;;;;;4989837;28;20058;-81
2021/09/27 01:46:06;;;;;;;6.45;3.50;;;15.60;99.90;;;;;;5001246;28;20550;-80
2021/09/27 01:48:50;;;;;;;4.93;3.10;;;15.60;99.90;;;;;;5010027;28;20037;-81
2021/09/27 01:52:01;;;;;;;6.00;3.53;;;15.60;99.90;;;;;;5004570;28;20034;-81
2021/09/27 01:54:39;;;;;;;3.75;2.90;;;15.60;99.90;;;;;;4985473;28;20045;-80
2021/09/27 01:57:13;;;;;;;5.75;3.28;;;15.60;99.90;;;;;;4988819;28;20069;-80
2021/09/27 02:00:04;;;;;;;5.32;3.15;;;15.60;99.90;;;;;;5009415;28;20113;-81
2021/09/27 02:02:49;;;;;;;6.35;3.28;;;15.60;99.90;;;;;;4998657;28;20035;-81
2021/09/27 02:05:57;;;;;;;10.65;4.05;;;15.70;99.90;;;;;;4991343;28;20044;-80
2021/09/27 02:08:51;;;;;;;6.63;4.00;;;15.60;99.90;;;;;;5007119;28;20193;-81
2021/09/27 02:11:26;;;;;;;5.88;3.78;;;15.70;99.90;;;;;;5002410;28;20042;-80
2021/09/27 02:13:55;;;;;;;6.50;3.92;;;15.70;99.90;;;;;;5003645;28;20029;-80
2021/09/27 02:16:53;;;;;;;6.30;4.18;;;15.60;99.90;;;;;;5007322;28;20278;-80
2021/09/27 02:19:27;;;;;;;8.52;3.20;;;15.60;99.90;;;;;;5008871;28;20036;-81
2021/09/27 02:21:59;;;;;;;4.80;3.20;;;15.70;99.90;;;;;;4989740;28;20686;-80
2021/09/27 02:24:45;;;;;;;5.15;3.42;;;15.70;99.90;;;;;;4975696;28;20034;-81
2021/09/27 02:27:11;;;;;;;7.22;4.13;;;15.70;99.90;;;;;;5002595;28;20045;-81
2021/09/27 02:29:38;;;;;;;5.53;3.70;;;15.70;99.90;;;;;;4993406;28;20092;-80
2021/09/27 02:32:20;;;;;;;4.65;3.38;;;15.70;99.90;;;;;;4988181;28;20586;-81
2021/09/27 02:35:20;;;;;;;6.05;3.42;;;15.70;99.90;;;;;;5009753;28;20026;-81
2021/09/27 02:38:02;;;;;;;5.53;3.55;;;15.70;99.90;;;;;;5008438;28;20045;-80
2021/09/27 02:40:45;;;;;;;18.85;2.60;;;15.70;99.90;;;;;;4984989;28;20033;-81
2021/09/27 02:43:13;;;;;;;8.23;1.15;;;15.70;99.90;;;;;;5008992;28;20054;-80
2021/09/27 02:45:43;;;;;;;4.38;1.25;;;15.70;99.90;;;;;;4991824;28;20045;-81
2021/09/27 02:48:38;;;;;;;4.50;1.60;;;15.70;99.90;;;;;;5009489;28;20038;-80
2021/09/27 02:51:05;;;;;;;1.70;1.52;;;15.70;99.90;;;;;;4990604;28;20050;-81
2021/09/27 02:53:31;;;;;;;1.92;1.60;;;15.70;99.90;;;;;;4976857;28;20038;-81
2021/09/27 02:56:53;;;;;;;1.60;1.50;;;15.70;99.90;;;;;;5005160;28;20499;-80
2021/09/27 02:59:50;;;;;;;3.65;1.10;;;15.60;99.90;;;;;;5018855;28;20176;-81
2021/09/27 03:02:53;;;;;;;2.00;1.40;;;15.60;99.90;;;;;;5000852;28;20076;-80
2021/09/27 03:05:43;;;;;;;6.13;1.60;;;15.60;99.90;;;;;;5010631;28;20484;-81
2021/09/27 03:08:37;;;;;;;1.35;1.17;;;15.60;99.90;;;;;;5013624;28;20061;-80
2021/09/27 03:11:12;;;;;;;2.33;1.30;;;15.60;99.90;;;;;;5000683;28;20026;-81
2021/09/27 03:13:38;;;;;;;;;;;15.60;99.90;;;;;;5001692;28;20472;-81
2021/09/27 03:16:31;;;;;;;3.00;2.15;;;15.60;99.90;;;;;;5011418;28;19964;-81
2021/09/27 03:19:05;;;;;;;6.00;3.95;;;15.60;99.90;;;;;;5012277;28;20038;-82
2021/09/27 03:21:40;;;;;;;4.35;3.33;;;15.60;99.90;;;;;;5008598;28;20017;-81
2021/09/27 03:24:23;;;;;;;4.95;3.92;;;15.70;99.90;;;;;;5013161;28;20088;-80
2021/09/27 03:27:17;;;;;;;5.20;3.85;;;15.60;99.90;;;;;;4992690;28;20153;-81
2021/09/27 03:29:51;;;;;;;49.72;4.57;;;15.70;99.90;;;;;;5011934;28;20408;-82
2021/09/27 03:32:25;;;;;;;32.67;3.80;;;15.60;99.90;;;;;;5005452;28;20483;-82
2021/09/27 03:35:21;;;;;;;4.35;3.20;;;15.70;99.90;;;;;;5010524;28;20157;-81
2021/09/27 03:38:04;;;;;;;;;;;15.60;99.90;;;;;;4986068;28;20045;-81
2021/09/27 03:40:35;;;;;;;13.48;3.45;;;15.60;99.90;;;;;;5002980;28;19943;-81
2021/09/27 03:43:06;;;;;;;7.85;2.67;;;15.60;99.90;;;;;;5009395;28;20042;-81
2021/09/27 03:45:59;;;;;;;10.02;2.20;;;15.60;99.90;;;;;;5008174;28;20033;-81
2021/09/27 03:48:39;;;;;;;4.85;2.05;;;15.60;99.90;;;;;;5010068;28;20126;-81
2021/09/27 03:51:31;;;;;;;9.20;3.17;;;15.60;99.90;;;;;;5002477;28;20451;-81
2021/09/27 03:54:24;;;;;;;16.45;2.72;;;15.60;99.90;;;;;;5011985;28;20455;-81
2021/09/27 03:57:03;;;;;;;13.60;1.60;;;15.50;99.90;;;;;;5001682;28;20029;-81
2021/09/27 03:59:50;;;;;;;1.95;1.80;;;15.50;99.90;;;;;;5011728;28;20101;-81
2021/09/27 04:02:36;;;;;;;4.22;3.13;;;15.50;99.90;;;;;;5009041;28;20041;-81
2021/09/27 04:05:12;;;;;;;8.90;4.30;;;15.50;99.90;;;;;;4990745;28;20057;-81
2021/09/27 04:08:06;;;;;;;7.22;4.78;;;15.50;99.90;;;;;;4984839;28;20030;-81
2021/09/27 04:10:51;;;;;;;7.35;5.20;;;15.50;99.90;;;;;;4994115;28;20029;-81
2021/09/27 04:13:41;;;;;;;6.65;5.03;;;15.40;99.90;;;;;;4993400;28;20030;-81
2021/09/27 04:16:27;;;;;;;8.45;4.78;;;15.40;99.90;;;;;;5004831;28;20081;-82
2021/09/27 04:18:59;;;;;;;6.68;4.93;;;15.40;99.90;;;;;;5004495;28;20026;-81
2021/09/27 04:21:30;;;;;;;9.07;5.75;;;15.40;99.90;;;;;;4986765;28;20376;-80
2021/09/27 04:24:04;;;;;;;8.73;5.22;;;15.40;99.90;;;;;;5005899;28;20085;-81
2021/09/27 04:27:09;;;;;;;8.52;6.07;;;15.30;99.90;;;;;;5007837;28;20033;-81
2021/09/27 04:29:41;;;;;;;7.60;5.60;;;15.40;99.90;;;;;;5010971;28;20555;-81
2021/09/27 04:32:30;;;;;;;9.15;6.25;;;15.40;99.90;;;;;;4989226;28;20049;-81
2021/09/27 04:35:20;;;;;;;10.88;7.00;;;15.40;99.90;;;;;;5007589;28;20046;-81
2021/09/27 04:37:47;;;;;;;10.77;6.80;;;15.40;99.90;;;;;;5008784;28;20476;-81
2021/09/27 04:40:16;;;;;;;9.52;6.40;;;15.40;99.90;;;;;;4991724;28;20129;-81
2021/09/27 04:43:16;;;;;;;10.80;6.45;;;15.30;99.90;;;;;;5002802;28;20105;-81
2021/09/27 04:45:55;;;;;;;13.02;6.80;;;15.40;99.90;;;;;;5003718;28;20026;-81
2021/09/27 04:48:44;;;;;;;9.88;6.82;;;15.30;99.90;;;;;;4994055;28;20058;-81
2021/09/27 04:51:26;;;;;;;13.38;7.07;;;15.30;99.90;;;;;;5008627;28;20038;-81
2021/09/27 04:54:18;;;;;;;10.73;6.18;;;15.40;99.90;;;;;;5012000;28;20053;-81
2021/09/27 04:56:49;;;;;;;11.55;7.22;;;15.30;99.90;;;;;;5003767;28;20041;-82
2021/09/27 04:59:34;;;;;;;13.52;7.88;;;15.30;99.90;;;;;;5025697;28;20073;-81
2021/09/27 05:02:26;;;;;;;14.45;6.93;;;15.30;99.90;;;;;;5009221;28;20029;-81
2021/09/27 05:04:52;;;;;;;15.60;7.22;;;15.30;99.90;;;;;;5005593;28;20574;-81
2021/09/27 05:07:55;;;;;;;19.70;6.95;;;15.30;99.90;;;;;;4994475;28;20026;-82
2021/09/27 05:10:54;;;;;;;12.68;6.43;;;15.30;99.90;;;;;;5009960;28;20045;-83
2021/09/27 05:13:41;;;;;;;9.10;6.40;;;15.30;99.90;;;;;;5009454;28;20037;-81
2021/09/27 05:16:10;;;;;;;12.25;6.60;;;15.40;99.90;;;;;;4990774;28;20031;-81
2021/09/27 05:18:58;;;;;;;12.60;6.80;;;15.30;99.90;;;;;;4993803;28;20029;-82
2021/09/27 05:21:36;;;;;;;10.57;6.82;;;15.40;99.90;;;;;;4990025;28;20504;-82
2021/09/27 05:24:36;;;;;;;10.93;7.05;;;15.40;99.90;;;;;;5007917;28;20026;-82
2021/09/27 05:27:28;;;;;;;14.45;8.20;;;15.40;99.90;;;;;;5009381;28;20036;-81
2021/09/27 05:29:59;;;;;;;17.02;8.05;;;15.40;99.90;;;;;;5002484;28;20560;-81
2021/09/27 05:33:11;;;;;;;17.65;7.88;;;15.40;99.90;;;;;;5009244;28;20058;-81
2021/09/27 05:36:11;;;;;;;42.63;7.88;;;15.40;99.90;;;;;;4982012;28;20072;-82
2021/09/27 05:38:44;;;;;;;16.90;7.90;;;15.40;99.90;;;;;;5003087;28;20117;-81
2021/09/27 05:41:20;;;;;;;13.55;7.70;;;15.50;99.90;;;;;;5007356;28;20035;-81
2021/09/27 05:43:54;;;;;;;22.02;8.55;;;15.50;99.90;;;;;;4993612;28;20041;-81
2021/09/27 05:46:36;;;;;;;15.88;8.43;;;15.50;99.90;;;;;;5020849;28;20030;-81
2021/09/27 05:49:08;;;;;;;12.88;7.93;;;15.50;99.90;;;;;;4994261;28;20030;-82
2021/09/27 05:51:47;;;;;;;19.83;8.77;;;15.50;99.90;;;;;;4999730;28;20034;-81
2021/09/27 05:54:33;;;;;;;11.43;7.65;;;15.60;99.90;;;;;;5008894;28;20038;-81
2021/09/27 05:57:23;;;;;;;15.43;8.15;;;15.60;99.90;;;;;;5005399;28;20080;-82
2021/09/27 05:59:52;;;;;;;28.45;8.60;;;15.60;99.90;;;;;;5008768;28;20112;-82
2021/09/27 06:02:56;;;;;;;14.55;9.00;;;15.60;99.90;;;;;;4993083;28;20092;-82
2021/09/27 06:05:30;;;;;;;14.65;9.38;;;15.60;99.90;;;;;;4990777;28;20026;-82
2021/09/27 06:08:25;;;;;;;16.77;9.65;;;15.60;99.90;;;;;;4991633;28;20030;-81
2021/09/27 06:11:00;;;;;;;14.40;9.05;;;15.60;99.90;;;;;;5001736;28;20033;-82
2021/09/27 06:13:32;;;;;;;13.25;8.85;;;15.60;99.90;;;;;;5007518;28;20034;-82
2021/09/27 06:16:04;;;;;;;17.25;9.00;;;15.70;99.90;;;;;;4998071;28;20378;-83
2021/09/27 06:18:52;;;;;;;32.67;9.82;;;15.70;99.90;;;;;;5009501;28;20034;-82
2021/09/27 06:21:27;;;;;;;24.52;9.23;;;15.70;99.90;;;;;;5006526;28;20018;-82
2021/09/27 06:24:04;;;;;;;15.90;9.30;;;15.70;99.90;;;;;;5008276;28;20025;-82
2021/09/27 06:26:33;;;;;;;17.00;9.48;;;15.70;99.90;;;;;;5006673;28;20105;-82
2021/09/27 06:29:04;;;;;;;14.07;9.13;;;15.70;99.90;;;;;;4988796;28;20522;-83
2021/09/27 06:31:33;;;;;;;21.20;10.27;;;15.70;99.90;;;;;;5011612;28;20041;-83
2021/09/27 06:34:15;;;;;;;14.52;9.60;;;15.70;99.90;;;;;;5008074;28;20022;-83
2021/09/27 06:36:42;;;;;;;15.68;9.88;;;15.80;99.90;;;;;;5007450;28;20071;-82
2021/09/27 06:39:15;;;;;;;25.45;9.73;;;15.70;99.90;;;;;;5007659;28;20038;-82
2021/09/27 06:41:41;;;;;;;27.75;8.57;;;15.80;99.90;;;;;;4996463;28;20034;-82
2021/09/27 06:44:12;;;;;;;11.70;7.78;;;15.80;99.90;;;;;;5010613;28;20030;-82
2021/09/27 06:46:38;;;;;;;17.13;9.63;;;15.80;99.90;;;;;;5005626;28;20061;-83
2021/09/27 06:49:04;;;;;;;13.95;8.50;;;15.80;99.90;;;;;;4991694;28;20737;-82
2021/09/27 06:51:30;;;;;;;15.02;8.82;;;15.80;99.90;;;;;;4994553;28;20065;-82
2021/09/27 06:53:55;;;;;;;19.38;7.85;;;15.90;99.90;;;;;;4996299;28;20511;-83
2021/09/27 06:56:22;;;;;;;17.60;7.18;;;15.90;99.90;;;;;;4977189;28;20022;-83
2021/09/27 06:58:48;;;;;;;15.68;8.40;;;15.90;99.90;;;;;;4979388;28;20587;-83
2021/09/27 07:01:14;;;;;;;12.95;7.82;;;15.90;99.90;;;;;;4998094;28;20121;-83
2021/09/27 07:03:39;;;;;;;15.90;9.20;;;15.90;99.90;;;;;;4997911;28;20124;-83
2021/09/27 07:06:05;;;;;;;23.67;8.70;;;15.90;99.90;;;;;;4979304;28;20092;-82
2021/09/27 07:08:31;;;;;;;14.45;8.77;;;15.90;99.90;;;;;;4982949;28;20035;-82
2021/09/27 07:10:56;;;;;;;23.17;8.63;;;16.00;99.90;;;;;;4995113;28;20038;-82
2021/09/27 07:13:23;;;;;;;17.95;9.63;;;16.00;99.90;;;;;;5011175;28;20038;-83
2021/09/27 07:15:49;;;;;;;15.05;9.30;;;16.00;99.90;;;;;;5006427;28;20030;-82
2021/09/27 07:18:15;;;;;;;15.43;9.25;;;15.90;99.90;;;;;;4994163;28;20029;-82
2021/09/27 07:20:41;;;;;;;15.20;8.57;;;16.00;99.90;;;;;;4992225;28;20057;-83
2021/09/27 07:23:07;;;;;;;14.75;9.50;;;15.90;99.90;;;;;;4990330;28;20092;-82
2021/09/27 07:25:34;;;;;;;20.33;10.45;;;16.00;99.90;;;;;;5006832;28;20431;-82
2021/09/27 07:28:00;;;;;;;17.63;9.52;;;16.00;99.90;;;;;;4994174;28;20520;-84
2021/09/27 07:30:27;;;;;;;16.90;10.43;;;16.00;99.90;;;;;;5007419;28;20172;-82
2021/09/27 07:32:53;;;;;;;19.45;11.13;;;16.00;99.90;;;;;;5002934;28;20045;-83
2021/09/27 07:35:25;;;;;;;15.35;9.65;;;16.00;99.90;;;;;;4989927;28;20030;-84
2021/09/27 07:37:51;;;;;;;19.33;10.82;;;16.10;99.90;;;;;;4997157;28;20022;-84
2021/09/27 07:40:22;;;;;;;21.50;10.25;;;16.10;99.90;;;;;;4999157;28;20484;-84
2021/09/27 07:42:48;;;;;;;23.13;9.07;;;16.10;99.90;;;;;;4999697;28;20026;-83
2021/09/27 07:45:19;;;;;;;22.95;8.98;;;16.20;99.90;;;;;;4997687;28;20026;-83
2021/09/27 07:47:45;;;;;;;16.73;9.20;;;16.20;99.90;;;;;;4993434;28;20024;-82
2021/09/27 07:50:12;;;;;;;14.32;9.52;;;16.20;99.90;;;;;;5009430;28;20685;-83
2021/09/27 07:52:38;;;;;;;37.00;12.13;;;16.30;99.90;;;;;;4986828;28;20113;-83
2021/09/27 07:55:06;;;;;;;21.63;11.52;;;16.30;99.90;;;;;;4978201;28;20120;-83
2021/09/27 07:57:32;;;;;;;29.48;12.85;;;16.30;99.90;;;;;;4991168;28;20026;-83
2021/09/27 07:59:58;;;;;;;21.05;11.32;;;16.40;99.90;;;;;;5002256;28;20787;-83
2021/09/27 08:08:32;;;;;;;22.38;11.77;;;16.60;99.90;;;;;;5000178;28;20032;-83
2021/09/27 08:10:58;;;;;;;23.10;11.80;;;16.70;99.90;;;;;;4977342;28;20030;-83
2021/09/27 08:13:23;;;;;;;22.08;12.85;;;16.80;99.90;;;;;;4979300;28;20049;-82
2021/09/27 08:15:52;;;;;;;26.98;13.18;;;16.80;99.90;;;;;;4979687;28;20031;-84
2021/09/27 08:18:19;;;;;;;28.25;15.02;;;16.90;99.90;;;;;;4992466;28;20059;-85
2021/09/27 08:21:03;;;;;;;26.92;15.63;;;16.90;99.90;;;;;;4967015;28;20026;-82
2021/09/27 08:23:30;;;;;;;31.40;14.98;;;16.90;99.90;;;;;;4984519;28;20038;-81
2021/09/27 08:25:56;;;;;;;23.27;12.30;;;17.00;99.90;;;;;;5002363;28;20100;-85
2021/09/27 08:28:25;;;;;;;23.30;12.88;;;17.00;99.90;;;;;;4991881;28;20022;-84
2021/09/27 08:30:54;;;;;;;20.85;12.23;;;17.00;99.90;;;;;;4981996;28;20068;-83
2021/09/27 08:33:21;;;;;;;26.45;14.88;;;17.10;99.90;;;;;;4994024;28;20046;-82
2021/09/27 08:35:49;;;;;;;23.42;12.82;;;17.10;99.90;;;;;;4998672;28;20033;-84
2021/09/27 08:38:16;;;;;;;26.92;14.10;;;17.20;99.90;;;;;;4991594;28;20027;-84
2021/09/27 08:40:47;;;;;;;23.65;13.77;;;17.20;99.90;;;;;;5000289;28;20041;-83
2021/09/27 08:43:26;;;;;;;21.65;12.40;;;17.20;99.90;;;;;;4991064;28;20167;-82
2021/09/27 08:45:56;;;;;;;19.98;12.60;;;17.30;99.90;;;;;;4988609;28;20490;-81
2021/09/27 08:48:37;;;;;;;20.55;12.35;;;17.30;99.90;;;;;;4974141;28;20309;-81
2021/09/27 08:51:03;;;;;;;29.05;16.08;;;17.30;99.90;;;;;;4988125;28;20034;-81
2021/09/27 08:53:35;;;;;;;32.20;17.08;;;17.30;99.90;;;;;;4991085;28;20022;-81
2021/09/27 08:56:14;;;;;;;22.73;13.77;;;17.20;99.90;;;;;;4985231;28;20026;-84
2021/09/27 08:58:56;;;;;;;21.02;13.15;;;17.30;99.90;;;;;;4986350;28;20033;-83
2021/09/27 09:01:29;;;;;;;24.30;14.07;;;17.50;99.90;;;;;;5005697;28;20057;-84
2021/09/27 09:04:02;;;;;;;23.98;14.63;;;17.60;99.90;;;;;;4985280;28;20117;-84
2021/09/27 09:06:41;;;;;;;25.88;14.95;;;17.70;99.90;;;;;;5004575;28;20034;-83
2021/09/27 09:09:23;;;;;;;22.52;13.90;;;17.60;99.90;;;;;;4971626;28;20042;-82
2021/09/27 09:12:01;;;;;;;24.98;14.60;;;17.70;99.90;;;;;;4981422;28;20033;-84
2021/09/27 09:14:55;;;;;;;29.58;16.35;;;17.80;99.90;;;;;;4989455;28;20099;-83
2021/09/27 09:17:39;;;;;;;25.65;17.17;;;18.00;99.90;;;;;;4994249;28;20068;-81
2021/09/27 09:20:25;;;;;;;29.73;17.08;;;18.00;99.90;;;;;;4987309;28;20440;-84
2021/09/27 09:22:52;;;;;;;22.45;14.45;;;18.20;99.90;;;;;;4985116;28;20030;-84
2021/09/27 09:25:27;;;;;;;24.80;14.85;;;18.40;99.90;;;;;;5002770;28;20166;-84
2021/09/27 09:27:53;;;;;;;;;;;18.60;99.90;;;;;;4990108;28;20458;-83
2021/09/27 09:30:23;;;;;;;20.77;13.85;;;18.70;99.90;;;;;;5002367;28;21480;-83
2021/09/27 09:32:53;;;;;;;24.17;15.43;;;18.90;99.90;;;;;;4979055;28;20038;-83
2021/09/27 09:35:28;;;;;;;25.92;15.32;;;19.00;99.90;;;;;;4992468;28;20038;-82
2021/09/27 09:38:07;;;;;;;20.35;14.38;;;19.00;99.90;;;;;;4992549;28;20017;-84
2021/09/27 09:40:36;;;;;;;20.65;13.63;;;19.10;99.90;;;;;;4993721;28;20099;-83
2021/09/27 09:43:10;;;;;;;20.92;13.35;;;19.10;99.90;;;;;;5008337;28;20087;-80
2021/09/27 09:45:45;;;;;;;17.88;12.50;;;19.10;99.90;;;;;;5005404;28;20108;-83
2021/09/27 09:48:25;;;;;;;20.05;12.95;;;19.10;99.90;;;;;;4979547;28;20053;-84
2021/09/27 09:50:56;;;;;;;20.90;13.73;;;19.20;99.90;;;;;;4987584;28;20069;-84
2021/09/27 09:53:26;;;;;;;23.40;14.52;;;19.20;99.90;;;;;;4991411;28;20045;-84
2021/09/27 09:56:01;;;;;;;17.73;12.85;;;19.30;99.90;;;;;;4987528;28;20029;-83
2021/09/27 09:58:46;;;;;;;19.70;13.40;;;19.30;99.90;;;;;;5006033;28;20472;-82
2021/09/27 10:01:23;;;;;;;22.40;12.98;;;19.40;99.90;;;;;;5000689;28;20576;-84
2021/09/27 10:04:00;;;;;;;18.38;12.57;;;19.40;99.90;;;;;;5006941;28;20467;-83
2021/09/27 10:06:48;;;;;;;19.65;12.25;;;19.40;99.90;;;;;;5007633;28;20096;-84
2021/09/27 10:09:25;;;;;;;16.60;11.02;;;19.30;99.90;;;;;;5008544;28;20060;-84
2021/09/27 10:11:54;;;;;;;15.25;10.88;;;19.10;99.90;;;;;;5002889;28;20034;-84
2021/09/27 10:14:36;;;;;;;13.93;10.57;;;19.00;99.90;;;;;;4977052;28;20048;-84
2021/09/27 10:17:24;;;;;;;15.35;9.80;;;18.80;99.90;;;;;;4987936;28;20037;-84
2021/09/27 10:20:19;;;;;;;14.15;10.25;;;18.60;99.90;;;;;;5007908;28;20107;-81
2021/09/27 10:22:57;;;;;;;14.15;10.05;;;18.50;99.90;;;;;;4988123;28;20046;-84
2021/09/27 10:25:34;;;;;;;15.25;10.45;;;18.40;99.90;;;;;;5011019;28;20034;-84
2021/09/27 10:28:02;;;;;;;15.18;10.65;;;18.20;99.90;;;;;;4985852;28;20420;-83
2021/09/27 10:30:43;;;;;;;14.95;10.68;;;18.20;99.90;;;;;;5009513;28;20069;-84
2021/09/27 10:33:27;;;;;;;17.77;11.57;;;18.20;99.90;;;;;;4987546;28;20153;-84
2021/09/27 10:35:57;;;;;;;16.17;10.93;;;18.30;99.90;;;;;;5004770;28;20084;-84
2021/09/27 10:38:27;;;;;;;20.02;12.18;;;18.30;99.90;;;;;;4990197;28;20026;-84
2021/09/27 10:40:53;;;;;;;16.63;11.48;;;18.30;99.90;;;;;;4988600;28;20026;-84
2021/09/27 10:43:23;;;;;;;16.30;11.48;;;18.30;99.90;;;;;;5004516;28;20169;-84
2021/09/27 10:45:54;;;;;;;15.63;10.95;;;18.30;99.90;;;;;;5013852;28;20034;-84
2021/09/27 10:48:21;;;;;;;14.88;10.98;;;18.20;99.90;;;;;;4969841;28;20100;-84
2021/09/27 10:50:53;;;;;;;15.55;10.93;;;18.20;99.90;;;;;;4988449;28;20033;-79
2021/09/27 10:53:30;;;;;;;19.42;11.13;;;18.30;99.90;;;;;;4992966;28;20970;-79
2021/09/27 10:56:22;;;;;;;18.00;11.80;;;18.40;99.90;;;;;;5002487;28;20039;-80
2021/09/27 10:59:09;;;;;;;17.58;11.40;;;18.50;99.90;;;;;;5009884;28;20544;-79
2021/09/27 11:01:44;;;;;;;15.07;10.75;;;18.60;99.90;;;;;;5000506;28;20033;-80
2021/09/27 11:04:15;;;;;;;16.40;10.65;;;18.50;99.90;;;;;;5002906;28;20040;-78
2021/09/27 11:06:52;;;;;;;12.88;9.82;;;18.40;99.90;;;;;;5005214;28;20041;-79
2021/09/27 11:09:38;;;;;;;16.67;10.50;;;18.40;99.90;;;;;;5005900;28;20102;-79
2021/09/27 11:12:04;;;;;;;;;;;18.50;99.90;;;;;;4986820;28;20042;-81
2021/09/27 11:14:57;;;;;;;16.90;10.10;;;18.50;99.90;;;;;;5001823;28;19917;-79
2021/09/27 11:17:45;;;;;;;15.45;11.48;;;18.60;99.90;;;;;;5004642;28;20030;-80
2021/09/27 11:20:37;;;;;;;14.38;10.65;;;18.80;99.90;;;;;;5006410;28;20524;-79
2021/09/27 11:23:17;;;;;;;15.48;11.13;;;18.90;99.90;;;;;;5010838;28;20034;-80
2021/09/27 11:25:47;;;;;;;16.23;10.80;;;18.90;99.90;;;;;;5008053;28;20033;-79
2021/09/27 11:28:42;;;;;;;17.75;9.98;;;18.90;99.90;;;;;;5009884;28;20033;-79
2021/09/27 11:31:25;;;;;;;16.77;10.35;;;18.90;99.90;;;;;;5004763;28;20052;-80
2021/09/27 11:34:19;;;;;;;11.68;9.02;;;18.90;99.90;;;;;;4994749;28;20022;-79
2021/09/27 11:36:50;;;;;;;16.23;10.13;;;18.90;99.90;;;;;;4990464;28;20033;-79
2021/09/27 11:39:28;;;;;;;13.05;9.15;;;19.00;99.90;;;;;;4994371;28;20057;-79
2021/09/27 11:42:19;;;;;;;11.90;8.63;;;19.00;99.90;;;;;;5007278;28;20121;-79
2021/09/27 11:44:59;;;;;;;11.85;8.73;;;19.10;99.90;;;;;;5010750;28;20026;-79
2021/09/27 11:47:44;;;;;;;11.60;8.10;;;19.00;99.90;;;;;;5009509;28;20029;-80
2021/09/27 11:50:52;;;;;;;12.40;8.57;;;18.90;99.90;;;;;;5009175;28;21368;-79
2021/09/27 11:53:33;;;;;;;11.88;8.52;;;18.80;99.90;;;;;;5010089;28;20029;-78
2021/09/27 11:56:06;;;;;;;14.27;8.38;;;18.80;99.90;;;;;;5002536;28;20026;-78
2021/09/27 11:58:58;;;;;;;12.10;8.63;;;18.80;99.90;;;;;;5009765;28;20053;-81
2021/09/27 12:01:42;;;;;;;11.00;8.38;;;18.70;99.90;;;;;;5010495;28;20037;-79
2021/09/27 12:04:18;;;;;;;13.35;8.73;;;18.80;99.90;;;;;;5014811;28;20484;-82
2021/09/27 12:06:49;;;;;;;9.68;7.95;;;18.80;99.90;;;;;;5010381;28;20037;-83
2021/09/27 12:09:44;;;;;;;9.43;7.53;;;18.90;99.90;;;;;;5016938;28;20283;-81
2021/09/27 12:12:21;;;;;;;10.83;7.40;;;19.00;99.90;;;;;;4996920;28;20038;-82
2021/09/27 12:14:49;;;;;;;11.93;8.55;;;19.10;99.90;;;;;;5008188;28;20025;-83
2021/09/27 12:17:20;;;;;;;9.63;7.30;;;19.10;99.90;;;;;;5005956;28;20049;-79
2021/09/27 12:19:59;;;;;;;11.27;7.28;;;19.10;99.90;;;;;;5014388;28;20554;-80
2021/09/27 12:22:35;;;;;;;10.95;8.20;;;19.10;99.90;;;;;;4998116;28;20034;-81
2021/09/27 12:25:07;;;;;;;10.40;7.65;;;18.90;99.90;;;;;;5013770;28;20025;-81
2021/09/27 12:27:33;;;;;;;10.50;7.20;;;18.90;99.90;;;;;;5000817;28;20037;-83
2021/09/27 12:30:03;;;;;;;9.40;7.03;;;18.70;99.90;;;;;;5013174;28;20029;-80
2021/09/27 12:32:36;;;;;;;9.05;7.53;;;18.70;99.90;;;;;;5012058;28;20040;-81
2021/09/27 12:35:23;;;;;;;9.88;7.53;;;18.70;99.90;;;;;;5009862;28;20034;-81
2021/09/27 12:37:52;;;;;;;12.38;8.25;;;18.60;99.90;;;;;;5009410;28;20021;-81
2021/09/27 12:40:20;;;;;;;11.35;8.02;;;18.60;99.90;;;;;;5009847;28;20024;-80
2021/09/27 12:42:51;;;;;;;15.20;8.18;;;18.60;99.90;;;;;;4991418;28;20058;-80
2021/09/27 12:45:40;;;;;;;12.35;8.70;;;18.60;99.90;;;;;;4990728;28;20025;-81
2021/09/27 12:48:32;;;;;;;11.15;8.02;;;18.70;99.90;;;;;;5005196;28;20038;-79
2021/09/27 12:51:12;;;;;;;10.77;8.23;;;18.70;99.90;;;;;;5001918;28;20132;-81
2021/09/27 12:53:55;;;;;;;10.63;8.70;;;18.70;99.90;;;;;;5005353;28;20030;-81
2021/09/27 12:56:21;;;;;;;10.38;7.93;;;18.80;99.90;;;;;;4987424;28;20112;-81
2021/09/27 12:59:04;;;;;;;10.75;8.15;;;18.90;99.90;;;;;;4990913;28;20117;-81
2021/09/27 13:01:33;;;;;;;10.70;8.25;;;18.90;99.90;;;;;;5001303;28;20030;-80
2021/09/27 13:04:21;;;;;;;14.40;8.32;;;19.00;99.90;;;;;;4990839;28;20041;-81
2021/09/27 13:07:09;;;;;;;11.13;8.23;;;19.10;99.90;;;;;;4989241;28;20970;-81
2021/09/27 13:09:53;;;;;;;9.80;7.65;;;19.10;99.90;;;;;;5006216;28;20510;-81
2021/09/27 13:12:26;;;;;;;11.57;8.90;;;19.20;99.90;;;;;;4995933;28;20038;-81
2021/09/27 13:14:59;;;;;;;9.07;7.57;;;19.20;99.90;;;;;;5003445;28;20435;-81
2021/09/27 13:17:28;;;;;;;10.48;8.13;;;19.20;99.90;;;;;;4986869;28;20029;-82
2021/09/27 13:19:56;;;;;;;10.00;7.68;;;19.20;99.90;;;;;;4990376;28;20040;-81
2021/09/27 13:22:43;;;;;;;9.88;7.65;;;19.20;99.90;;;;;;4989835;28;20018;-81
2021/09/27 13:25:14;;;;;;;10.70;8.18;;;19.20;99.90;;;;;;5003930;28;20485;-81
2021/09/27 13:27:46;;;;;;;11.07;7.45;;;19.20;99.90;;;;;;5006068;28;20056;-81
2021/09/27 13:30:15;;;;;;;9.35;7.57;;;19.10;99.90;;;;;;4972153;28;20382;-81
2021/09/27 13:32:51;;;;;;;10.60;8.20;;;19.00;99.90;;;;;;4984023;28;20022;-82
2021/09/27 13:35:30;;;;;;;11.10;8.13;;;18.80;99.90;;;;;;5004361;28;20030;-81